Time;durP1;ratioP1;P1;durP2;ratioP2;P2;SDS_P1;SDS_P2;PMS_P1;PMS_P2;Temp;Humidity;BMP_temperature;BMP_pressure;BME280_temperature;BME280_humidity;BME280_pressure;Samples;Min_cycle;Max_cycle;Signal;HPM_P1;HPM_P2
2022/09/12 00:00:42;;;;;;;12.60;9.57;;;14.10;38.80;;;;;;5071768;28;20481;-63
2022/09/12 00:03:09;;;;;;;14.33;10.50;;;14.20;38.80;;;;;;5060544;28;20469;-63
2022/09/12 00:05:43;;;;;;;12.70;9.67;;;14.10;38.80;;;;;;5063657;28;21273;-63
2022/09/12 00:08:10;;;;;;;11.50;9.87;;;14.00;39.00;;;;;;5062488;28;20489;-63
2022/09/12 00:10:38;;;;;;;10.60;8.90;;;14.10;39.00;;;;;;5064234;28;20464;-63
2022/09/12 00:13:07;;;;;;;11.20;9.00;;;14.10;39.00;;;;;;5063980;28;20465;-63
2022/09/12 00:15:38;;;;;;;12.17;9.50;;;14.10;38.90;;;;;;5061957;28;20985;-63
2022/09/12 00:18:06;;;;;;;11.50;9.27;;;14.10;39.00;;;;;;5060912;28;20477;-62
2022/09/12 00:20:32;;;;;;;11.67;8.80;;;14.00;39.50;;;;;;5064996;28;20458;-63
2022/09/12 00:22:59;;;;;;;11.87;9.80;;;14.00;38.90;;;;;;5062375;28;20453;-62
2022/09/12 00:25:29;;;;;;;15.67;10.40;;;14.00;39.20;;;;;;5063493;28;20480;-63
2022/09/12 00:27:57;;;;;;;12.97;9.43;;;13.90;39.10;;;;;;5064877;28;20985;-62
2022/09/12 00:30:25;;;;;;;15.83;11.57;;;13.90;39.20;;;;;;5064717;28;20475;-62
2022/09/12 00:32:53;;;;;;;12.13;9.50;;;13.90;39.40;;;;;;5065607;28;20461;-62
2022/09/12 00:35:20;;;;;;;14.57;10.03;;;13.80;39.30;;;;;;5064050;28;20487;-63
2022/09/12 00:37:47;;;;;;;14.07;11.03;;;13.80;39.30;;;;;;5065703;28;20586;-63
2022/09/12 00:40:13;;;;;;;17.10;11.20;;;13.80;39.30;;;;;;5062842;28;20584;-62
2022/09/12 00:42:40;;;;;;;16.30;12.20;;;13.80;39.50;;;;;;5063500;28;21042;-63
2022/09/12 00:45:22;;;;;;;13.60;10.90;;;13.70;39.60;;;;;;5062330;28;20457;-63
2022/09/12 00:47:51;;;;;;;12.60;10.50;;;13.70;40.00;;;;;;5064418;28;20500;-62
2022/09/12 00:50:18;;;;;;;11.27;8.83;;;13.60;40.10;;;;;;5065829;28;20474;-62
2022/09/12 00:52:49;;;;;;;13.53;8.90;;;13.60;40.20;;;;;;5060871;28;20485;-63
2022/09/12 00:55:19;;;;;;;12.50;8.67;;;13.60;40.30;;;;;;5059373;28;20454;-62
2022/09/12 00:57:52;;;;;;;11.07;8.60;;;13.50;40.30;;;;;;5060310;28;20497;-63
2022/09/12 01:00:22;;;;;;;10.47;8.63;;;13.50;40.30;;;;;;5059657;28;20461;-63
2022/09/12 01:02:53;;;;;;;11.10;8.87;;;13.40;40.40;;;;;;5063323;28;20465;-62
2022/09/12 01:05:22;;;;;;;9.30;7.40;;;13.40;40.30;;;;;;5064419;28;20554;-63
2022/09/12 01:07:50;;;;;;;12.77;9.37;;;13.40;40.30;;;;;;5060912;28;20493;-64
2022/09/12 01:10:18;;;;;;;14.40;10.90;;;13.40;40.10;;;;;;5064859;28;20468;-63
2022/09/12 01:12:46;;;;;;;13.50;10.80;;;13.40;40.10;;;;;;5060965;28;21155;-62
2022/09/12 01:15:12;;;;;;;12.70;10.30;;;13.30;40.00;;;;;;5061393;28;20472;-62
2022/09/12 01:17:57;;;;;;;17.20;9.67;;;13.30;40.10;;;;;;5062600;28;20495;-63
2022/09/12 01:20:54;;;;;;;14.33;10.70;;;13.30;40.30;;;;;;5063159;28;20456;-62
2022/09/12 01:24:02;;;;;;;17.77;9.77;;;13.30;40.50;;;;;;5061317;28;20465;-62
2022/09/12 01:27:10;;;;;;;12.83;9.67;;;13.20;40.50;;;;;;5061776;28;20477;-62
2022/09/12 01:30:05;;;;;;;11.50;9.40;;;13.10;40.70;;;;;;5005266;28;20946;-62
2022/09/12 01:32:43;;;;;;;12.17;8.90;;;13.10;40.70;;;;;;5059887;28;20477;-62
2022/09/12 01:35:20;;;;;;;12.60;9.97;;;13.00;40.30;;;;;;5060773;28;20499;-62
2022/09/12 01:37:58;;;;;;;12.90;9.60;;;13.00;40.30;;;;;;5061137;28;20580;-62
2022/09/12 01:40:31;;;;;;;11.00;9.23;;;13.00;40.20;;;;;;5059884;28;20461;-62
2022/09/12 01:43:05;;;;;;;8.37;5.90;;;13.00;40.10;;;;;;5060522;28;20454;-62
2022/09/12 01:45:38;;;;;;;6.63;4.73;;;13.00;39.90;;;;;;5056934;28;20484;-62
2022/09/12 01:48:14;;;;;;;6.80;5.13;;;12.90;39.80;;;;;;5061411;28;21044;-62
2022/09/12 01:50:52;;;;;;;9.20;7.03;;;12.90;39.80;;;;;;5062126;28;20469;-64
2022/09/12 01:53:23;;;;;;;9.33;6.97;;;12.90;39.80;;;;;;5061194;28;20983;-64
2022/09/12 01:55:53;;;;;;;8.97;6.87;;;12.80;39.70;;;;;;5060759;28;20450;-64
2022/09/12 01:58:24;;;;;;;11.50;8.70;;;12.80;39.70;;;;;;5061065;28;20473;-65
2022/09/12 02:00:58;;;;;;;10.97;8.77;;;12.70;39.70;;;;;;5058525;28;20477;-65
2022/09/12 02:03:30;;;;;;;12.10;8.87;;;12.70;40.00;;;;;;5056468;28;20465;-62
2022/09/12 02:06:01;;;;;;;11.83;9.10;;;12.70;39.90;;;;;;5060265;28;20474;-65
2022/09/12 02:08:32;;;;;;;12.23;8.70;;;12.70;39.90;;;;;;5060939;28;20481;-65
2022/09/12 02:11:04;;;;;;;14.07;8.40;;;12.70;40.00;;;;;;5063807;28;20461;-65
2022/09/12 02:13:35;;;;;;;23.57;11.90;;;12.70;40.10;;;;;;5063002;28;20465;-65
2022/09/12 02:16:08;;;;;;;17.37;10.40;;;12.70;40.80;;;;;;5060608;28;21215;-65
2022/09/12 02:18:40;;;;;;;15.90;12.10;;;12.70;40.80;;;;;;5057965;28;21259;-64
2022/09/12 02:21:08;;;;;;;17.97;10.47;;;12.70;40.70;;;;;;5063227;28;20541;-64
2022/09/12 02:23:39;;;;;;;22.50;11.17;;;12.70;41.20;;;;;;5058336;28;20468;-64
2022/09/12 02:26:11;;;;;;;13.97;9.70;;;12.70;41.10;;;;;;5063204;28;20481;-64
2022/09/12 02:28:41;;;;;;;13.60;10.03;;;12.70;41.00;;;;;;5058853;28;20477;-64
2022/09/12 02:31:13;;;;;;;15.40;9.10;;;12.70;41.00;;;;;;5059586;28;21027;-64
2022/09/12 02:33:48;;;;;;;12.27;9.37;;;12.70;40.90;;;;;;5059347;28;20812;-64
2022/09/12 02:36:23;;;;;;;12.97;9.80;;;12.70;41.00;;;;;;5061814;28;20449;-64
2022/09/12 02:38:50;;;;;;;13.90;9.90;;;12.70;40.90;;;;;;5060190;28;21086;-64
2022/09/12 02:41:19;;;;;;;15.93;9.97;;;12.60;40.80;;;;;;5061052;28;20834;-63
2022/09/12 02:43:47;;;;;;;12.37;8.80;;;12.60;41.00;;;;;;5061418;28;20458;-64
2022/09/12 02:46:18;;;;;;;13.73;10.30;;;12.70;40.90;;;;;;5061636;28;20481;-64
2022/09/12 02:48:46;;;;;;;11.40;7.70;;;12.60;40.90;;;;;;5059914;28;20613;-64
2022/09/12 02:51:14;;;;;;;11.33;8.17;;;12.70;41.60;;;;;;5059352;28;20491;-64
2022/09/12 02:53:41;;;;;;;22.70;9.23;;;12.70;41.00;;;;;;5061913;28;21171;-64
2022/09/12 02:56:14;;;;;;;11.87;7.43;;;12.70;40.90;;;;;;5060057;28;20466;-64
2022/09/12 02:58:41;;;;;;;12.03;7.73;;;12.70;41.00;;;;;;5061512;28;20507;-64
2022/09/12 03:01:19;;;;;;;17.30;9.27;;;12.70;41.20;;;;;;5058626;28;20469;-64
2022/09/12 03:04:03;;;;;;;16.40;8.87;;;12.70;41.60;;;;;;5061602;28;20459;-64
2022/09/12 03:06:35;;;;;;;13.10;10.37;;;12.70;41.80;;;;;;5061941;28;21000;-64
2022/09/12 03:09:12;;;;;;;29.47;11.57;;;12.80;41.60;;;;;;5059934;28;20478;-64
2022/09/12 03:12:02;;;;;;;21.67;10.90;;;12.90;41.90;;;;;;5060534;28;20484;-64
2022/09/12 03:15:07;;;;;;;18.10;10.80;;;12.90;42.50;;;;;;5062163;28;20460;-64
2022/09/12 03:17:45;;;;;;;19.73;10.63;;;12.90;42.70;;;;;;5060571;28;20473;-64
2022/09/12 03:20:17;;;;;;;26.43;8.70;;;13.00;42.40;;;;;;5060214;28;20957;-64
2022/09/12 03:22:53;;;;;;;12.93;9.10;;;13.00;43.00;;;;;;5060070;28;20464;-64
2022/09/12 03:25:23;;;;;;;30.13;10.50;;;13.00;42.50;;;;;;5062785;28;20510;-64
2022/09/12 03:27:56;;;;;;;18.10;8.73;;;13.00;42.20;;;;;;5058369;28;20477;-64
2022/09/12 03:30:23;;;;;;;15.63;8.33;;;13.10;42.50;;;;;;5060070;28;20457;-64
2022/09/12 03:32:51;;;;;;;11.93;7.47;;;13.10;42.50;;;;;;5059186;28;20468;-64
2022/09/12 03:35:21;;;;;;;17.87;8.00;;;13.10;42.40;;;;;;5062673;28;20461;-64
2022/09/12 03:37:50;;;;;;;31.40;8.17;;;13.10;42.30;;;;;;5063083;28;20509;-64
2022/09/12 03:40:17;;;;;;;15.30;9.70;;;13.10;42.30;;;;;;5063406;28;20558;-64
2022/09/12 03:42:44;;;;;;;15.70;8.27;;;13.10;42.30;;;;;;5065637;28;20450;-64
2022/09/12 03:45:11;;;;;;;14.80;10.23;;;13.10;42.30;;;;;;5063669;28;20461;-64
2022/09/12 03:47:38;;;;;;;14.10;9.57;;;13.10;42.50;;;;;;5065207;28;20484;-64
2022/09/12 03:50:06;;;;;;;13.67;8.60;;;13.10;42.20;;;;;;5065542;28;20468;-64
2022/09/12 03:52:34;;;;;;;12.90;8.80;;;13.10;42.30;;;;;;5066565;28;20453;-64
2022/09/12 03:55:01;;;;;;;15.67;11.40;;;13.10;42.30;;;;;;5063580;28;20453;-64
2022/09/12 03:57:28;;;;;;;15.00;9.47;;;13.20;42.40;;;;;;5066521;28;20492;-64
2022/09/12 03:59:54;;;;;;;35.17;9.50;;;13.20;42.50;;;;;;5066873;28;20457;-64
2022/09/12 04:02:21;;;;;;;18.73;9.40;;;13.10;42.50;;;;;;5059509;28;20480;-64
2022/09/12 04:04:48;;;;;;;17.90;8.90;;;13.10;42.60;;;;;;5059983;28;20469;-64
2022/09/12 04:07:15;;;;;;;23.33;9.27;;;13.00;42.90;;;;;;5064041;28;20476;-64
2022/09/12 04:09:43;;;;;;;12.80;8.17;;;13.00;42.80;;;;;;5061598;28;20457;-64
2022/09/12 04:12:11;;;;;;;18.33;8.90;;;12.90;42.90;;;;;;5064705;28;20461;-64
2022/09/12 04:14:38;;;;;;;18.40;8.90;;;12.80;43.20;;;;;;5065922;28;20890;-64
2022/09/12 04:17:05;;;;;;;18.40;9.60;;;12.80;43.40;;;;;;5063863;28;20945;-64
2022/09/12 04:19:31;;;;;;;20.10;8.53;;;12.80;43.80;;;;;;5066191;28;20484;-64
2022/09/12 04:21:58;;;;;;;19.60;8.87;;;12.70;43.90;;;;;;5065678;28;20464;-64
2022/09/12 04:24:25;;;;;;;13.13;8.80;;;12.70;43.90;;;;;;5065183;28;20595;-64
2022/09/12 04:26:53;;;;;;;25.57;9.10;;;12.70;43.80;;;;;;5063346;28;20513;-64
2022/09/12 04:29:20;;;;;;;21.00;9.93;;;12.70;43.70;;;;;;5065566;28;20473;-65
2022/09/12 04:31:47;;;;;;;33.50;10.10;;;12.70;43.60;;;;;;5064220;28;20481;-64
2022/09/12 04:34:14;;;;;;;33.77;10.50;;;12.60;43.10;;;;;;5066355;28;20465;-64
2022/09/12 04:36:41;;;;;;;44.97;9.80;;;12.60;43.10;;;;;;5064335;28;20518;-64
2022/09/12 04:39:08;;;;;;;32.53;9.50;;;12.60;43.10;;;;;;5064981;28;20485;-65
2022/09/12 04:41:36;;;;;;;21.13;8.60;;;12.50;42.90;;;;;;5065480;28;20467;-64
2022/09/12 04:44:07;;;;;;;18.83;8.20;;;12.50;42.90;;;;;;5064781;28;20465;-65
2022/09/12 04:46:37;;;;;;;13.47;7.70;;;12.40;43.00;;;;;;5062170;28;20993;-64
2022/09/12 04:49:05;;;;;;;17.30;9.80;;;12.40;43.10;;;;;;5061651;28;20495;-64
2022/09/12 04:51:34;;;;;;;13.67;8.87;;;12.50;43.00;;;;;;5063953;28;20466;-64
2022/09/12 04:54:03;;;;;;;28.43;8.57;;;12.40;42.90;;;;;;5062574;28;20528;-64
2022/09/12 04:56:30;;;;;;;21.27;8.70;;;12.40;42.80;;;;;;5066452;28;20453;-64
2022/09/12 04:58:59;;;;;;;11.57;9.13;;;12.40;42.90;;;;;;5063336;28;21021;-64
2022/09/12 05:01:28;;;;;;;11.63;8.47;;;12.40;43.00;;;;;;5062197;28;20506;-64
2022/09/12 05:03:56;;;;;;;30.47;9.40;;;12.50;42.90;;;;;;5062030;28;20469;-64
2022/09/12 05:06:25;;;;;;;13.43;8.53;;;12.50;42.70;;;;;;5063686;28;20454;-64
2022/09/12 05:08:53;;;;;;;17.23;9.73;;;12.50;42.90;;;;;;5063596;28;20465;-64
2022/09/12 05:11:21;;;;;;;24.60;9.67;;;12.50;43.10;;;;;;5059674;22;20501;-69
2022/09/12 05:13:49;;;;;;;20.83;9.40;;;12.50;43.00;;;;;;5042886;28;20458;-61
2022/09/12 05:16:19;;;;;;;24.00;9.93;;;12.50;43.10;;;;;;5045458;28;20477;-61
2022/09/12 05:18:49;;;;;;;20.57;10.77;;;12.60;43.10;;;;;;5043660;28;20467;-61
2022/09/12 05:21:17;;;;;;;16.33;10.00;;;12.60;43.30;;;;;;5041202;28;20478;-66
2022/09/12 05:23:46;;;;;;;23.53;10.50;;;12.60;43.10;;;;;;5041820;28;21132;-60
2022/09/12 05:26:15;;;;;;;20.83;9.73;;;12.60;43.40;;;;;;5040642;28;20461;-60
2022/09/12 05:28:41;;;;;;;21.83;9.90;;;12.70;43.20;;;;;;5039896;28;21228;-59
2022/09/12 05:31:12;;;;;;;15.10;9.27;;;12.70;43.10;;;;;;5043445;28;20501;-69
2022/09/12 05:33:40;;;;;;;12.83;9.43;;;12.70;43.20;;;;;;5039594;28;20459;-61
2022/09/12 05:36:11;;;;;;;31.27;9.37;;;12.80;43.20;;;;;;5041103;28;20837;-67
2022/09/12 05:38:38;;;;;;;32.97;8.03;;;12.70;43.00;;;;;;5037125;28;20937;-66
2022/09/12 05:41:06;;;;;;;26.83;8.43;;;12.70;42.90;;;;;;5043872;28;20968;-60
2022/09/12 05:43:33;;;;;;;26.10;7.70;;;12.80;42.30;;;;;;5036726;28;21041;-59
2022/09/12 05:46:01;;;;;;;15.93;8.63;;;12.80;42.30;;;;;;5035212;28;20466;-59
2022/09/12 05:48:28;;;;;;;21.27;8.43;;;12.80;42.20;;;;;;5035472;28;20559;-59
2022/09/12 05:51:00;;;;;;;20.13;7.80;;;12.80;42.00;;;;;;5040295;28;20483;-59
2022/09/12 05:53:29;;;;;;;18.73;7.60;;;12.80;41.60;;;;;;5039369;28;20535;-59
2022/09/12 05:56:04;;;;;;;16.40;8.50;;;12.80;41.60;;;;;;5039358;28;21196;-59
2022/09/12 05:58:31;;;;;;;19.87;7.90;;;12.90;41.80;;;;;;5040631;28;20552;-59
2022/09/12 06:01:02;;;;;;;43.87;9.30;;;13.00;41.60;;;;;;5040341;28;20485;-61
2022/09/12 06:03:30;;;;;;;42.53;8.27;;;13.10;41.20;;;;;;5039976;28;20478;-59
2022/09/12 06:05:57;;;;;;;16.87;7.60;;;13.10;40.80;;;;;;5043163;28;20548;-59
2022/09/12 06:08:23;;;;;;;13.37;7.23;;;13.10;40.80;;;;;;5037816;28;20554;-62
2022/09/12 06:10:52;;;;;;;38.60;8.63;;;13.10;40.70;;;;;;5032395;28;20591;-59
2022/09/12 06:13:18;;;;;;;8.27;6.60;;;13.20;40.40;;;;;;5037244;28;20823;-62
2022/09/12 06:15:45;;;;;;;17.53;6.00;;;13.20;40.00;;;;;;5035529;28;20469;-59
2022/09/12 06:18:12;;;;;;;27.37;6.90;;;13.30;40.30;;;;;;5042882;28;20943;-59
2022/09/12 06:20:38;;;;;;;8.87;6.33;;;13.40;39.90;;;;;;5039966;28;20496;-59
2022/09/12 06:23:05;;;;;;;8.40;6.90;;;13.50;39.70;;;;;;5041657;28;20466;-59
2022/09/12 06:25:32;;;;;;;12.80;7.10;;;13.60;39.70;;;;;;5038658;28;21066;-60
2022/09/12 06:28:00;;;;;;;9.90;6.20;;;13.70;39.70;;;;;;5032981;28;20501;-59
2022/09/12 06:30:28;;;;;;;7.67;5.60;;;13.70;39.30;;;;;;5038269;28;20491;-60
2022/09/12 06:32:55;;;;;;;10.33;6.13;;;13.80;39.10;;;;;;5042478;28;20468;-60
2022/09/12 06:35:22;;;;;;;10.00;5.90;;;13.90;39.00;;;;;;5040057;28;20482;-60
2022/09/12 06:37:49;;;;;;;7.60;6.10;;;14.00;38.90;;;;;;5035523;28;20462;-59
2022/09/12 06:40:16;;;;;;;15.07;7.17;;;14.10;38.70;;;;;;5041785;28;20474;-60
2022/09/12 06:42:43;;;;;;;8.00;6.13;;;14.20;38.60;;;;;;5039143;28;20469;-60
2022/09/12 06:45:11;;;;;;;34.83;7.83;;;14.30;38.30;;;;;;5032616;28;20534;-59
2022/09/12 06:47:38;;;;;;;8.47;6.50;;;14.50;38.00;;;;;;5030968;28;20490;-59
2022/09/12 06:50:05;;;;;;;11.13;6.97;;;14.50;37.20;;;;;;5036839;28;20492;-60
2022/09/12 06:52:32;;;;;;;9.70;7.40;;;14.60;37.10;;;;;;5038192;28;20478;-59
2022/09/12 06:54:59;;;;;;;8.73;6.93;;;14.70;37.10;;;;;;5035204;28;21105;-60
2022/09/12 06:57:29;;;;;;;8.97;6.90;;;14.80;36.90;;;;;;5039348;28;20481;-60
2022/09/12 06:59:56;;;;;;;32.30;7.20;;;14.90;36.90;;;;;;5034194;28;20485;-59
2022/09/12 07:02:24;;;;;;;9.93;6.70;;;15.10;36.90;;;;;;5035385;28;20481;-59
2022/09/12 07:04:51;;;;;;;9.70;6.20;;;15.30;36.30;;;;;;5037801;28;20454;-59
2022/09/12 07:07:18;;;;;;;12.83;6.63;;;15.50;35.90;;;;;;5041312;28;20910;-60
2022/09/12 07:09:45;;;;;;;7.73;6.40;;;15.70;35.60;;;;;;5036896;22;20497;-60
2022/09/12 07:12:12;;;;;;;33.53;7.67;;;15.80;35.10;;;;;;5041007;28;20458;-60
2022/09/12 07:14:39;;;;;;;7.13;5.73;;;16.00;34.30;;;;;;5041253;28;20555;-60
2022/09/12 07:17:06;;;;;;;60.43;8.97;;;16.00;33.40;;;;;;5045040;28;20468;-63
2022/09/12 07:19:34;;;;;;;13.13;6.40;;;16.00;33.00;;;;;;5044276;28;20490;-61
2022/09/12 07:22:01;;;;;;;12.83;7.07;;;16.00;32.90;;;;;;5043274;28;20902;-62
2022/09/12 07:24:28;;;;;;;9.43;6.57;;;16.00;32.90;;;;;;5043281;28;20535;-62
2022/09/12 07:26:54;;;;;;;12.33;6.80;;;16.10;32.90;;;;;;5044837;28;20808;-62
2022/09/12 07:29:21;;;;;;;8.50;6.00;;;16.20;32.70;;;;;;5040036;28;21170;-61
2022/09/12 07:31:48;;;;;;;13.47;6.77;;;16.30;33.00;;;;;;5043283;28;20973;-62
2022/09/12 07:34:16;;;;;;;35.03;7.53;;;16.40;32.70;;;;;;5041315;28;20462;-58
2022/09/12 07:36:44;;;;;;;11.10;5.30;;;16.50;32.50;;;;;;5038306;28;20466;-61
2022/09/12 07:39:11;;;;;;;18.53;6.00;;;16.50;32.00;;;;;;5041184;28;20497;-60
2022/09/12 07:41:38;;;;;;;7.30;5.77;;;16.60;32.00;;;;;;5042511;28;20470;-65
2022/09/12 07:44:05;;;;;;;9.13;5.80;;;16.60;32.10;;;;;;5043009;28;20466;-62
2022/09/12 07:46:33;;;;;;;7.10;5.83;;;16.80;32.90;;;;;;5045133;28;20458;-61
2022/09/12 07:49:01;;;;;;;8.30;6.03;;;17.00;32.50;;;;;;5047817;28;20578;-62
2022/09/12 07:51:30;;;;;;;8.47;5.10;;;17.40;31.50;;;;;;5043021;28;21718;-63
2022/09/12 07:53:58;;;;;;;7.13;5.20;;;17.60;29.50;;;;;;5041929;28;21012;-63
2022/09/12 07:56:26;;;;;;;7.53;5.97;;;17.70;29.20;;;;;;5043422;28;20485;-62
2022/09/12 07:58:54;;;;;;;7.00;5.37;;;17.90;29.40;;;;;;5048174;28;20851;-61
2022/09/12 08:01:22;;;;;;;8.27;4.97;;;18.20;29.20;;;;;;5045089;28;20473;-61
2022/09/12 08:03:56;;;;;;;6.50;4.80;;;18.60;28.80;;;;;;5043869;28;20462;-62
2022/09/12 08:06:24;;;;;;;6.27;4.80;;;18.90;26.80;;;;;;5045857;28;20458;-63
2022/09/12 08:08:52;;;;;;;16.33;5.80;;;19.10;25.50;;;;;;5046123;28;20482;-67
2022/09/12 08:11:22;;;;;;;7.37;4.67;;;19.20;23.90;;;;;;5044141;28;20837;-60
2022/09/12 08:13:50;;;;;;;10.00;5.37;;;19.10;24.10;;;;;;5043522;28;20462;-59
2022/09/12 08:16:19;;;;;;;5.80;4.57;;;19.20;24.10;;;;;;5040462;28;20553;-61
2022/09/12 08:18:47;;;;;;;5.93;4.30;;;19.30;23.80;;;;;;5036148;28;21085;-62
2022/09/12 08:21:16;;;;;;;7.70;5.13;;;19.30;23.60;;;;;;5045116;28;20565;-61
2022/09/12 08:23:44;;;;;;;8.97;5.60;;;19.40;23.70;;;;;;5042327;28;20462;-59
2022/09/12 08:26:12;;;;;;;7.07;5.63;;;19.60;23.30;;;;;;5038465;28;20474;-60
2022/09/12 08:28:40;;;;;;;7.37;5.40;;;19.60;23.40;;;;;;5044883;28;20482;-60
2022/09/12 08:31:08;;;;;;;6.50;4.90;;;19.60;23.90;;;;;;5045699;28;21117;-64
2022/09/12 08:33:36;;;;;;;9.97;5.90;;;19.60;23.20;;;;;;5042756;28;20454;-64
2022/09/12 08:36:04;;;;;;;7.10;5.40;;;19.70;23.80;;;;;;5045488;28;20870;-61
2022/09/12 08:38:31;;;;;;;6.93;5.30;;;19.80;23.70;;;;;;5044129;28;20467;-61
2022/09/12 08:41:05;;;;;;;6.27;4.70;;;20.00;22.90;;;;;;5048186;28;20546;-61
2022/09/12 08:43:48;;;;;;;6.63;4.67;;;20.30;23.00;;;;;;5045363;28;20467;-62
2022/09/12 08:46:20;;;;;;;8.43;4.47;;;20.70;22.50;;;;;;5044407;28;20469;-59
2022/09/12 08:48:48;;;;;;;6.40;5.03;;;21.20;21.50;;;;;;5038376;28;20482;-61
2022/09/12 08:51:18;;;;;;;6.17;4.30;;;21.60;20.40;;;;;;5039877;28;20836;-70
2022/09/12 08:53:49;;;;;;;6.50;3.87;;;21.80;19.00;;;;;;5046830;28;20958;-67
2022/09/12 08:56:16;;;;;;;6.10;4.50;;;22.80;18.80;;;;;;5038533;28;20462;-68
2022/09/12 08:58:45;;;;;;;8.27;4.57;;;25.20;14.90;;;;;;5041587;28;20493;-64
2022/09/12 09:01:22;;;;;;;7.50;3.60;;;26.10;11.90;;;;;;5043656;28;20481;-63
2022/09/12 09:04:26;;;;;;;9.50;4.30;;;28.10;10.30;;;;;;5039996;28;20497;-62
2022/09/12 09:07:07;;;;;;;5.87;4.03;;;30.20;4.70;;;;;;5044387;28;20466;-63
2022/09/12 09:09:46;;;;;;;5.73;3.70;;;33.30;2.20;;;;;;5039400;28;20497;-64
2022/09/12 09:12:22;;;;;;;6.50;3.93;;;35.90;1.00;;;;;;5044220;28;20466;-64
2022/09/12 09:15:02;;;;;;;4.37;3.30;;;37.70;1.00;;;;;;5040856;28;20461;-60
2022/09/12 09:17:34;;;;;;;8.23;3.17;;;38.60;1.00;;;;;;5038684;28;20458;-61
2022/09/12 09:20:12;;;;;;;4.43;2.90;;;39.20;1.00;;;;;;5042495;28;20519;-63
2022/09/12 09:22:44;;;;;;;6.43;3.23;;;40.40;1.00;;;;;;5042961;28;20466;-62
2022/09/12 09:25:17;;;;;;;4.00;2.70;;;42.00;1.00;;;;;;5042507;28;20462;-65
2022/09/12 09:27:49;;;;;;;4.50;3.10;;;43.30;1.00;;;;;;5039058;28;20462;-66
2022/09/12 09:30:20;;;;;;;5.00;2.67;;;44.40;1.00;;;;;;5042454;28;20518;-64
2022/09/12 09:32:52;;;;;;;4.47;2.37;;;45.20;1.00;;;;;;5046349;28;20498;-66
2022/09/12 09:35:25;;;;;;;4.00;2.70;;;45.60;1.00;;;;;;5043488;28;20472;-66
2022/09/12 09:38:01;;;;;;;3.70;2.40;;;46.40;1.00;;;;;;5036384;28;20541;-68
2022/09/12 09:40:38;;;;;;;4.50;2.70;;;46.90;1.00;;;;;;5037254;28;20496;-70
2022/09/12 09:43:10;;;;;;;3.57;2.40;;;47.80;1.00;;;;;;5033338;28;20469;-63
2022/09/12 09:45:40;;;;;;;3.97;2.47;;;48.30;1.00;;;;;;5036396;28;20461;-70
2022/09/12 09:48:16;;;;;;;4.93;2.50;;;48.50;1.00;;;;;;5038354;28;20571;-64
2022/09/12 09:50:44;;;;;;;7.17;3.27;;;48.90;1.00;;;;;;5041363;28;20841;-64
2022/09/12 09:53:22;;;;;;;4.53;2.37;;;49.00;1.00;;;;;;5039536;28;20828;-62
2022/09/12 09:55:49;;;;;;;3.77;2.33;;;49.30;1.00;;;;;;5038174;28;20458;-62
2022/09/12 09:58:28;;;;;;;4.43;2.10;;;49.50;1.00;;;;;;5042924;28;20450;-65
2022/09/12 10:01:00;;;;;;;3.13;1.60;;;49.50;1.00;;;;;;5041680;28;20500;-69
2022/09/12 10:03:33;;;;;;;3.10;1.40;;;49.50;1.00;;;;;;5040866;28;20450;-64
2022/09/12 10:06:01;;;;;;;3.60;2.00;;;49.30;1.00;;;;;;5042349;28;20454;-67
2022/09/12 10:08:30;;;;;;;4.93;2.00;;;49.20;1.00;;;;;;5041070;28;20481;-69
2022/09/12 10:11:01;;;;;;;3.40;1.70;;;49.00;1.00;;;;;;5038073;28;20462;-67
2022/09/12 10:13:37;;;;;;;4.27;2.07;;;48.60;1.00;;;;;;5040059;28;20600;-64
2022/09/12 10:16:10;;;;;;;3.33;1.90;;;47.90;1.00;;;;;;5042507;28;20461;-63
2022/09/12 10:18:40;;;;;;;3.83;2.07;;;47.40;1.00;;;;;;5041462;28;20469;-67
2022/09/12 10:21:18;;;;;;;3.27;1.77;;;47.50;1.00;;;;;;5040721;28;20470;-64
2022/09/12 10:23:46;;;;;;;4.97;2.10;;;47.90;1.00;;;;;;5041340;28;20488;-67
2022/09/12 10:26:15;;;;;;;3.17;1.47;;;48.10;1.00;;;;;;5041927;28;20480;-66
2022/09/12 10:28:44;;;;;;;4.53;2.10;;;48.50;1.00;;;;;;5040793;28;20490;-68
2022/09/12 10:31:16;;;;;;;3.10;1.67;;;48.70;1.00;;;;;;5037129;28;20998;-68
2022/09/12 10:33:51;;;;;;;3.97;2.23;;;48.80;1.00;;;;;;5040546;28;20463;-65
2022/09/12 10:36:18;;;;;;;4.40;1.63;;;48.80;1.00;;;;;;5038882;28;20466;-66
2022/09/12 10:38:50;;;;;;;3.80;1.57;;;48.70;1.00;;;;;;5040253;28;20536;-69
2022/09/12 10:41:17;;;;;;;3.53;1.60;;;48.70;1.00;;;;;;5038682;28;20465;-70
2022/09/12 10:43:45;;;;;;;3.00;1.50;;;48.30;1.00;;;;;;5042336;28;20459;-67
2022/09/12 10:46:28;;;;;;;3.80;1.70;;;48.20;1.00;;;;;;5040912;28;20465;-67
2022/09/12 10:49:13;;;;;;;3.63;2.07;;;47.90;1.00;;;;;;5039852;28;20559;-67
2022/09/12 10:51:40;;;;;;;3.30;1.53;;;47.70;1.00;;;;;;5031687;28;20506;-68
2022/09/12 10:54:11;;;;;;;3.63;1.67;;;47.40;1.00;;;;;;5034863;28;20465;-66
2022/09/12 10:56:48;;;;;;;4.23;1.20;;;47.20;1.00;;;;;;5035490;28;20453;-66
2022/09/12 10:59:28;;;;;;;3.37;1.47;;;47.30;1.00;;;;;;5037432;28;20557;-67
2022/09/12 11:02:01;;;;;;;4.30;1.33;;;46.70;1.00;;;;;;5037189;28;20478;-66
2022/09/12 11:04:41;;;;;;;4.13;1.17;;;46.20;1.00;;;;;;5040393;28;20461;-66
2022/09/12 11:07:24;;;;;;;3.13;1.27;;;45.30;1.00;;;;;;5036360;28;20560;-66
2022/09/12 11:09:58;;;;;;;3.40;1.10;;;45.10;1.00;;;;;;5039281;28;20496;-66
2022/09/12 11:12:32;;;;;;;3.60;1.20;;;45.00;1.00;;;;;;5037855;28;20536;-68
2022/09/12 11:15:11;;;;;;;3.63;1.20;;;44.80;1.00;;;;;;5037580;28;21251;-67
2022/09/12 11:17:51;;;;;;;3.43;1.30;;;44.20;1.00;;;;;;5038812;28;20488;-67
2022/09/12 11:20:38;;;;;;;3.27;1.40;;;43.40;1.00;;;;;;5037460;28;20474;-67
2022/09/12 11:23:50;;;;;;;4.63;1.60;;;42.40;1.00;;;;;;5031781;28;20469;-63
2022/09/12 11:26:32;;;;;;;3.30;1.40;;;40.60;1.00;;;;;;4999696;28;20465;-62
2022/09/12 11:29:11;;;;;;;4.80;1.40;;;39.00;1.00;;;;;;5040213;28;20492;-62
2022/09/12 11:32:07;;;;;;;3.70;1.77;;;37.60;1.00;;;;;;5038024;28;20858;-62
2022/09/12 11:34:45;;;;;;;3.60;1.73;;;35.90;1.00;;;;;;5038452;28;20470;-62
2022/09/12 11:37:26;;;;;;;3.97;1.70;;;34.60;1.00;;;;;;5033326;28;20465;-62
2022/09/12 11:39:56;;;;;;;3.97;2.00;;;33.60;1.00;;;;;;5037723;28;20529;-62
2022/09/12 11:42:29;;;;;;;3.60;1.70;;;32.60;1.00;;;;;;5037334;28;20458;-62
2022/09/12 11:45:03;;;;;;;4.20;1.90;;;31.90;1.00;;;;;;5039256;28;20488;-62
2022/09/12 11:47:33;;;;;;;4.63;2.10;;;31.40;1.00;;;;;;5036195;28;20542;-62
2022/09/12 11:50:05;;;;;;;4.07;1.90;;;31.00;1.00;;;;;;5034989;28;20479;-63
2022/09/12 11:52:37;;;;;;;4.13;2.10;;;30.60;1.00;;;;;;5038976;28;20549;-61
2022/09/12 11:55:09;;;;;;;4.00;1.87;;;30.10;1.00;;;;;;5038455;28;20458;-60
2022/09/12 11:57:42;;;;;;;4.07;1.97;;;29.80;1.00;;;;;;5039980;28;20465;-60
2022/09/12 12:00:17;;;;;;;3.90;1.80;;;29.40;1.00;;;;;;5041261;28;20472;-61
2022/09/12 12:02:58;;;;;;;7.50;2.50;;;29.00;1.30;;;;;;5036519;28;20548;-60
2022/09/12 12:05:31;;;;;;;7.60;2.57;;;28.70;2.10;;;;;;5037397;28;20485;-60
2022/09/12 12:08:00;;;;;;;5.07;2.00;;;28.50;1.70;;;;;;5043207;28;20462;-61
2022/09/12 12:10:34;;;;;;;4.73;2.40;;;28.10;2.30;;;;;;5042376;28;21046;-60
2022/09/12 12:13:03;;;;;;;5.17;2.57;;;27.80;3.80;;;;;;5039093;28;21122;-61
2022/09/12 12:15:31;;;;;;;4.50;2.40;;;27.70;4.40;;;;;;5034274;28;20458;-61
2022/09/12 12:18:03;;;;;;;5.53;2.00;;;27.50;5.20;;;;;;5041264;28;20477;-61
2022/09/12 12:20:32;;;;;;;3.77;1.97;;;27.30;5.50;;;;;;5041211;28;20513;-61
2022/09/12 12:23:00;;;;;;;4.40;1.97;;;27.00;6.00;;;;;;5041660;28;20466;-63
2022/09/12 12:25:40;;;;;;;4.80;2.63;;;26.80;6.40;;;;;;5033389;28;20489;-61
2022/09/12 12:28:08;;;;;;;4.23;2.07;;;26.60;6.50;;;;;;5037794;28;20493;-62
2022/09/12 12:31:00;;;;;;;4.57;2.50;;;26.40;6.50;;;;;;5035036;28;20485;-61
2022/09/12 12:33:54;;;;;;;4.67;2.07;;;26.30;7.60;;;;;;5038096;28;20481;-61
2022/09/12 12:36:41;;;;;;;6.33;2.20;;;26.20;7.10;;;;;;5043446;28;20458;-61
2022/09/12 12:39:59;;;;;;;5.00;2.00;;;26.00;6.50;;;;;;5046710;28;20679;-61
2022/09/12 12:43:03;;;;;;;4.20;2.10;;;25.90;5.90;;;;;;4981594;28;20476;-61
2022/09/12 12:46:08;;;;;;;4.23;1.93;;;25.70;6.30;;;;;;4984692;28;20514;-61
2022/09/12 12:49:08;;;;;;;4.10;2.13;;;25.60;5.40;;;;;;5026126;28;20461;-61
2022/09/12 12:51:56;;;;;;;4.90;2.53;;;25.40;6.30;;;;;;5044478;28;20463;-61
2022/09/12 12:54:48;;;;;;;4.20;2.17;;;25.10;5.90;;;;;;5043019;28;20465;-61
2022/09/12 12:57:28;;;;;;;3.80;1.80;;;25.00;7.20;;;;;;5040694;28;20458;-61
2022/09/12 12:59:59;;;;;;;4.20;1.97;;;25.00;7.90;;;;;;5044116;28;20524;-61
2022/09/12 13:02:31;;;;;;;4.47;2.20;;;24.90;8.10;;;;;;5039426;28;20565;-61
2022/09/12 13:05:01;;;;;;;4.63;2.17;;;25.00;8.70;;;;;;5021790;28;21125;-61
2022/09/12 13:07:32;;;;;;;5.73;3.10;;;24.90;7.60;;;;;;5040553;28;20473;-60